Time;durP1;ratioP1;P1;durP2;ratioP2;P2;SDS_P1;SDS_P2;PMS_P1;PMS_P2;Temp;Humidity;BMP_temperature;BMP_pressure;BME280_temperature;BME280_humidity;BME280_pressure;Samples;Min_cycle;Max_cycle;Signal;HPM_P1;HPM_P2
2021/10/19 00:01:37;;;;;;;7.75;4.68;;;14.50;93.70;;;;;;5013285;28;20101;-76
2021/10/19 00:04:02;;;;;;;8.02;4.13;;;14.50;93.70;;;;;;5013137;28;20072;-76
2021/10/19 00:06:28;;;;;;;8.13;4.50;;;14.50;93.70;;;;;;5015010;28;20381;-76
2021/10/19 00:08:54;;;;;;;9.57;4.70;;;14.50;94.00;;;;;;5014059;28;20053;-76
2021/10/19 00:11:19;;;;;;;8.50;4.25;;;14.50;93.80;;;;;;5013693;28;20025;-76
2021/10/19 00:13:45;;;;;;;9.13;4.57;;;14.40;93.80;;;;;;5014892;28;20024;-76
2021/10/19 00:16:10;;;;;;;7.18;4.65;;;14.40;93.90;;;;;;5014233;28;20030;-76
2021/10/19 00:18:36;;;;;;;9.30;4.68;;;14.40;93.90;;;;;;5014834;28;20061;-76
2021/10/19 00:21:02;;;;;;;6.97;4.28;;;14.40;93.90;;;;;;5014233;28;20538;-76
2021/10/19 00:23:28;;;;;;;7.50;4.72;;;14.40;94.00;;;;;;5014691;28;20027;-76
2021/10/19 00:25:54;;;;;;;9.07;4.63;;;14.40;94.00;;;;;;5014166;28;20021;-75
2021/10/19 00:28:20;;;;;;;9.07;4.78;;;14.40;94.00;;;;;;5014894;28;20029;-75
2021/10/19 00:30:45;;;;;;;8.43;4.57;;;14.40;94.00;;;;;;5029784;28;20022;-75
2021/10/19 00:33:11;;;;;;;7.97;4.50;;;14.40;94.10;;;;;;5012582;28;20061;-75
2021/10/19 00:35:38;;;;;;;9.20;4.95;;;14.40;94.10;;;;;;5013943;28;20050;-76
2021/10/19 00:38:03;;;;;;;8.68;4.82;;;14.40;94.10;;;;;;5012436;28;20156;-76
2021/10/19 00:40:31;;;;;;;8.52;4.30;;;14.40;94.20;;;;;;5013129;28;20116;-76
2021/10/19 00:42:57;;;;;;;7.93;4.70;;;14.30;94.20;;;;;;5012380;28;20149;-76
2021/10/19 00:45:23;;;;;;;7.85;4.60;;;14.30;94.20;;;;;;5014269;28;20378;-77
2021/10/19 00:47:51;;;;;;;8.45;5.13;;;14.30;94.30;;;;;;5014507;28;20018;-77
2021/10/19 00:50:19;;;;;;;8.15;4.57;;;14.30;94.40;;;;;;5011713;28;20101;-76
2021/10/19 00:52:47;;;;;;;9.65;6.10;;;14.30;94.50;;;;;;4994944;28;20022;-76
2021/10/19 00:55:13;;;;;;;8.52;4.93;;;14.30;94.60;;;;;;5008898;28;20040;-76
2021/10/19 00:57:39;;;;;;;11.00;5.05;;;14.30;94.60;;;;;;4993494;28;20097;-77
2021/10/19 01:00:09;;;;;;;8.60;5.25;;;14.30;94.60;;;;;;4993749;28;20022;-76
2021/10/19 01:02:37;;;;;;;9.25;5.32;;;14.30;94.70;;;;;;4994638;28;20482;-76
2021/10/19 01:05:04;;;;;;;11.18;4.80;;;14.20;94.60;;;;;;4993742;28;20475;-77
2021/10/19 01:07:30;;;;;;;10.10;5.45;;;14.30;94.70;;;;;;4994294;28;20030;-77
2021/10/19 01:09:56;;;;;;;8.65;5.10;;;14.30;94.70;;;;;;4993716;28;20065;-76
2021/10/19 01:12:23;;;;;;;7.75;4.70;;;14.30;94.80;;;;;;4993980;28;20022;-77
2021/10/19 01:14:49;;;;;;;7.68;4.72;;;14.30;94.80;;;;;;5009117;28;20455;-77
2021/10/19 01:17:15;;;;;;;9.32;5.10;;;14.30;94.80;;;;;;4993916;28;20030;-76
2021/10/19 01:19:40;;;;;;;10.15;5.05;;;14.30;94.90;;;;;;4993861;28;20026;-77
2021/10/19 01:22:10;;;;;;;12.60;5.78;;;14.30;94.90;;;;;;4992151;28;20033;-76
2021/10/19 01:24:35;;;;;;;9.55;4.50;;;14.30;94.90;;;;;;4994049;28;20072;-77
2021/10/19 01:27:01;;;;;;;8.27;5.07;;;14.30;94.90;;;;;;4993453;28;20026;-76
2021/10/19 01:29:27;;;;;;;6.45;3.88;;;14.30;94.90;;;;;;4994024;28;20026;-77
2021/10/19 01:31:55;;;;;;;10.77;5.28;;;14.30;94.90;;;;;;4992524;28;20018;-75
2021/10/19 01:34:21;;;;;;;8.93;4.72;;;14.30;95.00;;;;;;5008797;28;20419;-77
2021/10/19 01:36:48;;;;;;;10.20;5.65;;;14.40;95.00;;;;;;4993708;28;20030;-77
2021/10/19 01:39:14;;;;;;;8.88;5.05;;;14.30;95.00;;;;;;4993145;28;20026;-77
2021/10/19 01:41:43;;;;;;;8.57;4.68;;;14.30;95.00;;;;;;4993456;28;20025;-77
2021/10/19 01:44:09;;;;;;;8.75;4.63;;;14.30;95.00;;;;;;4992973;28;20073;-75
2021/10/19 01:46:35;;;;;;;9.32;4.82;;;14.30;95.00;;;;;;4993240;28;20061;-75
2021/10/19 01:49:00;;;;;;;10.10;5.18;;;14.40;95.00;;;;;;4992879;28;20402;-76
2021/10/19 01:51:26;;;;;;;9.68;5.53;;;14.30;95.00;;;;;;4993435;28;20073;-75
2021/10/19 01:53:52;;;;;;;10.52;5.72;;;14.40;95.00;;;;;;4993373;28;20034;-76
2021/10/19 01:56:18;;;;;;;9.93;5.47;;;14.40;95.00;;;;;;4992616;28;20038;-77
2021/10/19 01:58:44;;;;;;;11.60;5.45;;;14.40;95.00;;;;;;4993321;28;20518;-76
2021/10/19 02:01:10;;;;;;;11.38;5.15;;;14.40;95.00;;;;;;4991470;28;20022;-76
2021/10/19 02:03:35;;;;;;;10.02;4.97;;;14.40;95.00;;;;;;4992984;28;20058;-77
2021/10/19 02:06:01;;;;;;;8.32;5.07;;;14.50;95.00;;;;;;4992603;28;20026;-76
2021/10/19 02:08:27;;;;;;;10.63;4.72;;;14.50;95.00;;;;;;4991860;28;20026;-76
2021/10/19 02:10:52;;;;;;;7.43;4.22;;;14.50;95.00;;;;;;4993163;28;20110;-76
2021/10/19 02:13:18;;;;;;;9.23;4.93;;;14.50;94.90;;;;;;4992171;28;20034;-77
2021/10/19 02:15:44;;;;;;;8.88;4.88;;;14.50;94.90;;;;;;4991703;28;20403;-76
2021/10/19 02:18:10;;;;;;;9.70;4.80;;;14.60;95.00;;;;;;4992476;28;20515;-76
2021/10/19 02:20:40;;;;;;;8.38;4.57;;;14.60;95.00;;;;;;4991787;28;20125;-76
2021/10/19 02:23:05;;;;;;;8.52;4.78;;;14.60;95.00;;;;;;4991849;28;20026;-75
2021/10/19 02:25:31;;;;;;;8.68;5.25;;;14.60;95.00;;;;;;4992511;28;20037;-75
2021/10/19 02:27:57;;;;;;;9.40;4.93;;;14.60;95.00;;;;;;5007450;28;20081;-76
2021/10/19 02:30:25;;;;;;;9.65;4.25;;;14.60;95.00;;;;;;5008022;28;20034;-76
2021/10/19 02:32:51;;;;;;;9.68;5.45;;;14.60;95.00;;;;;;4992851;28;20029;-76
2021/10/19 02:35:18;;;;;;;7.65;4.47;;;14.60;95.00;;;;;;4992043;28;20054;-75
2021/10/19 02:37:45;;;;;;;10.05;4.90;;;14.60;95.00;;;;;;4992431;28;20375;-75
2021/10/19 02:40:12;;;;;;;8.98;5.18;;;14.70;95.10;;;;;;5007077;28;20463;-75
2021/10/19 02:42:38;;;;;;;9.05;4.85;;;14.70;95.10;;;;;;4992646;28;20478;-75
2021/10/19 02:45:06;;;;;;;7.82;4.50;;;14.60;95.10;;;;;;4992124;28;20041;-75
2021/10/19 02:47:32;;;;;;;7.80;4.75;;;14.70;95.10;;;;;;4992368;28;20391;-76
2021/10/19 02:49:58;;;;;;;9.73;4.50;;;14.60;95.10;;;;;;4992622;28;20023;-77
2021/10/19 02:52:24;;;;;;;11.88;5.03;;;14.70;95.20;;;;;;4990677;28;20368;-77
2021/10/19 02:54:51;;;;;;;7.68;5.03;;;14.60;95.10;;;;;;4991901;28;20026;-77
2021/10/19 02:57:20;;;;;;;7.70;4.20;;;14.70;95.20;;;;;;4992009;28;20026;-77
2021/10/19 02:59:46;;;;;;;10.68;4.95;;;14.70;95.20;;;;;;4992550;28;20026;-77
2021/10/19 03:02:11;;;;;;;8.43;4.82;;;14.70;95.20;;;;;;4991976;28;20027;-77
2021/10/19 03:04:37;;;;;;;9.15;4.72;;;14.70;95.20;;;;;;4992508;28;20026;-76
2021/10/19 03:07:03;;;;;;;8.27;4.68;;;14.70;95.20;;;;;;4991931;28;20022;-76
2021/10/19 03:09:29;;;;;;;7.68;4.78;;;14.70;95.20;;;;;;4992518;28;20590;-76
2021/10/19 03:11:54;;;;;;;7.95;4.50;;;14.70;95.20;;;;;;4992243;28;20034;-76
2021/10/19 03:14:20;;;;;;;9.98;5.15;;;14.60;95.20;;;;;;4990660;28;20030;-76
2021/10/19 03:16:46;;;;;;;8.40;5.32;;;14.60;95.30;;;;;;4991002;28;20042;-76
2021/10/19 03:19:12;;;;;;;8.85;4.82;;;14.60;95.30;;;;;;4991570;28;20018;-76
2021/10/19 03:21:37;;;;;;;6.85;4.60;;;14.60;95.40;;;;;;4990997;28;20029;-76
2021/10/19 03:24:04;;;;;;;9.93;5.13;;;14.60;95.40;;;;;;4991698;28;20026;-75
2021/10/19 03:26:30;;;;;;;9.65;4.93;;;14.60;95.40;;;;;;4991985;28;20034;-76
2021/10/19 03:28:55;;;;;;;9.18;4.50;;;14.60;95.40;;;;;;4992322;28;20088;-75
2021/10/19 03:31:21;;;;;;;10.05;5.38;;;14.60;95.40;;;;;;4990268;28;20257;-75
2021/10/19 03:33:47;;;;;;;9.27;4.68;;;14.60;95.40;;;;;;4992017;28;20041;-76
2021/10/19 03:36:12;;;;;;;8.40;4.80;;;14.70;95.40;;;;;;4994554;28;20065;-76
2021/10/19 03:38:39;;;;;;;9.80;5.22;;;14.70;95.50;;;;;;4996061;28;20027;-76
2021/10/19 03:41:06;;;;;;;7.03;4.63;;;14.70;95.50;;;;;;4995363;28;20054;-76
2021/10/19 03:43:32;;;;;;;9.18;4.85;;;14.70;95.50;;;;;;4996011;28;20019;-76
2021/10/19 03:45:58;;;;;;;8.73;4.90;;;14.70;95.60;;;;;;4995870;28;20038;-78
2021/10/19 03:48:23;;;;;;;8.18;4.57;;;14.80;95.60;;;;;;4998054;28;20018;-77
2021/10/19 03:50:49;;;;;;;8.55;4.68;;;14.80;95.60;;;;;;5003477;28;20030;-78
2021/10/19 03:53:15;;;;;;;10.07;4.03;;;14.80;95.70;;;;;;5008699;28;20033;-77
2021/10/19 03:55:43;;;;;;;9.30;5.15;;;14.80;95.70;;;;;;5007967;28;20042;-77
2021/10/19 03:58:10;;;;;;;9.45;4.55;;;14.80;95.70;;;;;;4996736;28;20023;-77
2021/10/19 04:00:35;;;;;;;7.20;3.58;;;14.80;95.70;;;;;;5004384;28;20520;-78
2021/10/19 04:03:01;;;;;;;8.60;4.78;;;14.80;95.70;;;;;;5010616;28;20022;-78
2021/10/19 04:05:27;;;;;;;7.70;4.75;;;14.80;95.80;;;;;;5013993;28;20026;-78
2021/10/19 04:07:52;;;;;;;8.57;4.50;;;14.80;95.80;;;;;;5012388;28;20131;-78
2021/10/19 04:10:19;;;;;;;9.00;4.57;;;14.80;95.80;;;;;;5007334;28;20033;-77
2021/10/19 04:12:45;;;;;;;8.45;4.90;;;14.80;95.90;;;;;;5006866;28;20100;-77
2021/10/19 04:15:10;;;;;;;8.00;3.90;;;14.90;96.00;;;;;;5006183;28;20442;-77
2021/10/19 04:17:36;;;;;;;7.75;4.70;;;14.90;96.00;;;;;;5004325;28;20041;-78
2021/10/19 04:20:02;;;;;;;7.30;4.55;;;14.80;96.00;;;;;;5002540;28;20358;-78
2021/10/19 04:22:28;;;;;;;10.32;5.45;;;14.80;96.10;;;;;;5017419;28;20077;-78
2021/10/19 04:24:54;;;;;;;10.23;5.63;;;14.90;96.20;;;;;;5005451;28;20470;-78
2021/10/19 04:27:21;;;;;;;10.10;5.28;;;14.90;96.20;;;;;;5016652;28;20097;-78
2021/10/19 04:29:47;;;;;;;8.02;4.82;;;14.90;96.30;;;;;;5001126;28;20041;-78
2021/10/19 04:32:13;;;;;;;7.97;4.63;;;14.90;96.30;;;;;;5024572;28;20519;-78
2021/10/19 04:34:39;;;;;;;7.85;4.18;;;14.90;96.30;;;;;;5013929;28;20125;-77
2021/10/19 04:37:05;;;;;;;8.82;5.50;;;14.90;96.30;;;;;;5014836;28;20524;-78
2021/10/19 04:39:31;;;;;;;9.75;5.22;;;14.90;96.40;;;;;;5014292;28;20056;-78
2021/10/19 04:41:57;;;;;;;7.90;4.38;;;14.90;96.50;;;;;;5029980;28;20480;-78
2021/10/19 04:44:23;;;;;;;8.98;5.47;;;14.90;96.50;;;;;;5012965;28;20442;-78
2021/10/19 04:46:49;;;;;;;7.57;4.75;;;14.90;96.50;;;;;;5013897;28;20033;-78
2021/10/19 04:49:15;;;;;;;9.90;5.00;;;15.00;96.60;;;;;;5012481;28;20117;-79
2021/10/19 04:51:41;;;;;;;7.30;4.50;;;15.00;96.60;;;;;;5014415;28;20452;-77
2021/10/19 04:54:07;;;;;;;10.32;6.28;;;15.00;96.60;;;;;;5014292;28;20076;-77
2021/10/19 04:56:33;;;;;;;9.63;5.68;;;15.00;96.60;;;;;;5029398;28;20473;-76
2021/10/19 04:58:59;;;;;;;8.32;4.80;;;15.00;96.70;;;;;;5014183;28;20014;-78
2021/10/19 05:01:25;;;;;;;11.95;5.75;;;15.00;96.70;;;;;;5013134;28;20018;-77
2021/10/19 05:03:52;;;;;;;11.20;5.97;;;15.00;96.90;;;;;;5014069;28;20078;-75
2021/10/19 05:06:18;;;;;;;10.02;5.70;;;14.90;96.90;;;;;;5013612;28;20032;-75
2021/10/19 05:08:44;;;;;;;9.20;5.70;;;15.00;96.90;;;;;;5013979;28;20104;-75
2021/10/19 05:11:10;;;;;;;8.85;5.03;;;15.00;96.90;;;;;;5011857;28;20581;-76
2021/10/19 05:13:36;;;;;;;8.23;5.05;;;15.00;97.00;;;;;;5002159;28;20986;-75
2021/10/19 05:16:02;;;;;;;7.72;4.65;;;15.00;97.00;;;;;;5012158;28;20034;-75
2021/10/19 05:18:28;;;;;;;8.60;5.25;;;14.90;97.00;;;;;;5010250;28;20457;-75
2021/10/19 05:20:54;;;;;;;11.57;5.97;;;14.90;97.00;;;;;;5009570;28;20018;-75
2021/10/19 05:23:20;;;;;;;7.47;4.55;;;15.00;97.10;;;;;;5005340;28;20018;-75
2021/10/19 05:25:45;;;;;;;8.00;4.95;;;14.90;97.10;;;;;;5007675;28;20036;-75
2021/10/19 05:28:11;;;;;;;9.07;5.10;;;14.90;97.00;;;;;;5006223;28;20026;-75
2021/10/19 05:30:37;;;;;;;9.02;5.55;;;14.90;97.10;;;;;;5013611;28;20021;-76
2021/10/19 05:33:03;;;;;;;13.32;5.50;;;14.90;97.10;;;;;;5012235;28;20030;-75
2021/10/19 05:35:30;;;;;;;7.25;4.38;;;14.90;97.10;;;;;;5012582;28;20052;-75
2021/10/19 05:37:56;;;;;;;6.57;3.88;;;14.90;97.10;;;;;;5013413;28;20079;-75
2021/10/19 05:40:23;;;;;;;8.75;5.60;;;14.90;97.10;;;;;;5011324;28;20443;-75
2021/10/19 05:42:48;;;;;;;11.82;5.80;;;14.90;97.20;;;;;;5013222;28;20509;-75
2021/10/19 05:45:15;;;;;;;10.50;5.80;;;14.90;97.20;;;;;;5011116;28;20034;-76
2021/10/19 05:47:42;;;;;;;7.88;5.13;;;14.90;97.30;;;;;;5013429;28;20041;-76
2021/10/19 05:50:09;;;;;;;11.13;5.70;;;14.90;97.30;;;;;;5013107;28;20104;-75
2021/10/19 05:52:35;;;;;;;9.85;5.28;;;14.90;97.30;;;;;;5012419;28;20022;-75
2021/10/19 05:55:01;;;;;;;10.77;6.10;;;14.90;97.30;;;;;;5011630;28;20028;-76
2021/10/19 05:57:26;;;;;;;7.35;4.70;;;14.90;97.30;;;;;;5011941;28;20390;-76
2021/10/19 05:59:52;;;;;;;8.75;4.65;;;14.90;97.30;;;;;;5012278;28;20022;-76
2021/10/19 06:02:17;;;;;;;7.10;4.63;;;15.00;97.30;;;;;;5011073;28;20049;-76
2021/10/19 06:04:43;;;;;;;7.88;4.60;;;15.00;97.30;;;;;;5011695;28;20112;-77
2021/10/19 06:07:09;;;;;;;6.78;4.18;;;15.00;97.30;;;;;;5011499;28;20064;-77
2021/10/19 06:09:35;;;;;;;8.85;5.10;;;15.00;97.30;;;;;;5011939;28;20030;-76
2021/10/19 06:12:01;;;;;;;10.25;4.38;;;15.00;97.30;;;;;;5011407;28;20029;-75
2021/10/19 06:14:27;;;;;;;6.88;4.72;;;15.00;97.30;;;;;;5012204;28;20369;-76
2021/10/19 06:16:53;;;;;;;8.55;5.10;;;15.10;97.30;;;;;;5011340;28;20032;-76
2021/10/19 06:19:19;;;;;;;9.75;4.95;;;15.10;97.30;;;;;;5012015;28;20022;-76
2021/10/19 06:21:45;;;;;;;8.23;4.90;;;15.10;97.30;;;;;;5011422;28;20117;-76
2021/10/19 06:24:11;;;;;;;9.27;4.88;;;15.10;97.30;;;;;;5012652;28;20109;-76
2021/10/19 06:26:37;;;;;;;8.18;4.88;;;15.10;97.40;;;;;;5010556;28;20026;-76
2021/10/19 06:29:05;;;;;;;8.70;4.57;;;15.10;97.30;;;;;;5012834;28;20148;-76
2021/10/19 06:31:32;;;;;;;8.52;4.63;;;15.10;97.40;;;;;;5011813;28;20037;-76
2021/10/19 06:33:58;;;;;;;9.50;5.25;;;15.10;97.40;;;;;;5012266;28;20026;-76
2021/10/19 06:36:24;;;;;;;8.27;5.60;;;15.10;97.40;;;;;;5011587;28;20057;-76
2021/10/19 06:38:50;;;;;;;7.85;4.75;;;15.10;97.50;;;;;;5012477;28;20109;-77
2021/10/19 06:41:16;;;;;;;5.72;3.53;;;15.10;97.50;;;;;;5010489;28;20589;-76
2021/10/19 06:43:42;;;;;;;6.82;3.92;;;15.10;97.50;;;;;;5012518;28;20139;-76
2021/10/19 06:46:07;;;;;;;8.02;4.57;;;15.10;97.50;;;;;;5010899;28;20030;-76
2021/10/19 06:48:33;;;;;;;7.72;4.30;;;15.10;97.50;;;;;;5011344;28;20056;-77
2021/10/19 06:50:59;;;;;;;7.10;4.22;;;15.10;97.60;;;;;;5011989;28;20462;-76
2021/10/19 06:53:25;;;;;;;9.18;4.55;;;15.10;97.60;;;;;;5011384;28;20022;-77
2021/10/19 06:55:51;;;;;;;7.18;4.53;;;15.20;97.50;;;;;;5012113;28;20034;-76
2021/10/19 06:58:16;;;;;;;7.20;4.45;;;15.20;97.50;;;;;;5010202;28;20088;-73
2021/10/19 07:00:42;;;;;;;8.93;5.20;;;15.20;97.50;;;;;;5010833;28;20026;-76
2021/10/19 07:03:08;;;;;;;7.43;4.65;;;15.20;97.50;;;;;;5011780;28;20033;-78
2021/10/19 07:05:33;;;;;;;6.85;4.53;;;15.20;97.50;;;;;;5011554;28;20033;-76
2021/10/19 07:07:59;;;;;;;6.80;3.50;;;15.20;97.50;;;;;;5012174;28;20103;-78
2021/10/19 07:10:25;;;;;;;6.40;4.03;;;15.20;97.50;;;;;;5013496;28;20049;-76
2021/10/19 07:12:50;;;;;;;6.75;3.97;;;15.20;97.50;;;;;;5014745;28;20355;-75
2021/10/19 07:15:16;;;;;;;6.40;4.38;;;15.30;97.50;;;;;;5014315;28;20382;-75
2021/10/19 07:17:42;;;;;;;8.13;5.10;;;15.30;97.50;;;;;;5016035;28;20026;-78
2021/10/19 07:20:10;;;;;;;8.55;5.03;;;15.30;97.50;;;;;;5015591;28;20026;-78
2021/10/19 07:22:37;;;;;;;7.60;4.82;;;15.30;97.50;;;;;;5015220;28;20026;-75
2021/10/19 07:25:05;;;;;;;6.57;4.15;;;15.30;97.50;;;;;;5014787;28;20422;-75
2021/10/19 07:27:31;;;;;;;6.15;3.60;;;15.30;97.50;;;;;;5015253;28;20017;-75
2021/10/19 07:29:58;;;;;;;7.25;4.45;;;15.30;97.50;;;;;;5014421;28;20398;-75
2021/10/19 07:32:24;;;;;;;8.45;4.88;;;15.40;97.50;;;;;;5015124;28;20048;-75
2021/10/19 07:34:50;;;;;;;6.68;3.72;;;15.40;97.50;;;;;;5015426;28;20050;-76
2021/10/19 07:37:16;;;;;;;8.10;4.53;;;15.40;97.60;;;;;;5014435;28;20382;-76
2021/10/19 07:39:42;;;;;;;7.80;4.60;;;15.40;97.70;;;;;;5013741;28;20454;-76
2021/10/19 07:42:08;;;;;;;10.75;6.30;;;15.40;97.70;;;;;;5015696;28;20030;-76
2021/10/19 07:44:34;;;;;;;7.03;4.38;;;15.40;97.60;;;;;;5014788;28;20075;-77
2021/10/19 07:46:59;;;;;;;9.10;4.85;;;15.50;97.70;;;;;;5017237;28;20026;-77
2021/10/19 07:49:25;;;;;;;8.63;4.30;;;15.50;97.60;;;;;;5015868;28;20026;-77
2021/10/19 07:51:51;;;;;;;8.50;5.03;;;15.50;97.60;;;;;;5015391;28;20026;-77
2021/10/19 07:54:17;;;;;;;8.98;4.32;;;15.50;97.70;;;;;;5014104;28;20466;-77
2021/10/19 07:56:43;;;;;;;7.18;4.63;;;15.60;97.60;;;;;;5014620;28;20040;-77
2021/10/19 07:59:08;;;;;;;8.75;4.90;;;15.60;97.60;;;;;;5013950;28;20025;-77
2021/10/19 08:01:36;;;;;;;7.82;4.60;;;15.60;97.60;;;;;;5014588;28;20060;-77
2021/10/19 08:04:02;;;;;;;4.95;3.08;;;15.60;97.70;;;;;;5015357;28;20026;-77
2021/10/19 08:06:28;;;;;;;5.85;3.40;;;15.60;97.70;;;;;;5014222;28;20026;-76
2021/10/19 08:08:53;;;;;;;8.45;4.82;;;15.60;97.70;;;;;;5014898;28;20037;-77
2021/10/19 08:11:19;;;;;;;7.32;4.38;;;15.60;97.70;;;;;;5015349;28;20030;-77
2021/10/19 08:13:45;;;;;;;7.53;4.82;;;15.70;97.70;;;;;;5014162;28;20436;-77
2021/10/19 08:16:11;;;;;;;8.95;4.97;;;15.60;97.80;;;;;;5013695;28;20097;-76
2021/10/19 08:18:36;;;;;;;8.75;5.30;;;15.70;97.90;;;;;;5013226;28;20033;-77
2021/10/19 08:21:02;;;;;;;7.97;4.60;;;15.70;97.90;;;;;;5014053;28;20018;-77
2021/10/19 08:23:28;;;;;;;7.47;4.53;;;15.70;97.90;;;;;;5013903;28;20029;-77
2021/10/19 08:25:54;;;;;;;6.75;4.55;;;15.70;97.80;;;;;;5013499;28;20109;-77
2021/10/19 08:28:21;;;;;;;7.15;4.88;;;15.70;97.90;;;;;;5014669;28;20125;-76
2021/10/19 08:30:48;;;;;;;8.18;4.93;;;15.70;97.90;;;;;;5013188;28;20386;-77
2021/10/19 08:33:14;;;;;;;7.90;4.55;;;15.80;98.00;;;;;;5014633;28;20029;-77
2021/10/19 08:35:40;;;;;;;7.50;4.50;;;15.80;98.00;;;;;;5012415;28;20042;-76
2021/10/19 08:38:05;;;;;;;9.50;4.82;;;15.80;98.00;;;;;;5013262;28;20144;-76
2021/10/19 08:40:31;;;;;;;6.07;3.70;;;15.80;98.00;;;;;;5013798;28;20037;-76
2021/10/19 08:42:57;;;;;;;7.90;4.80;;;15.90;98.00;;;;;;5013076;28;20116;-77
2021/10/19 08:45:23;;;;;;;9.48;5.18;;;15.90;98.10;;;;;;5014404;28;20446;-77
2021/10/19 08:47:50;;;;;;;7.63;4.78;;;15.90;98.10;;;;;;5014280;28;20486;-76
2021/10/19 08:50:19;;;;;;;7.93;4.53;;;15.90;98.10;;;;;;5013244;28;20390;-75
2021/10/19 08:52:46;;;;;;;9.75;5.78;;;16.00;98.10;;;;;;5013647;28;20100;-75
2021/10/19 08:55:12;;;;;;;8.45;5.07;;;15.90;98.20;;;;;;5013701;28;20394;-76
2021/10/19 08:57:37;;;;;;;8.15;4.22;;;15.90;98.20;;;;;;5013472;28;20105;-76
2021/10/19 09:00:05;;;;;;;6.28;4.00;;;16.00;98.20;;;;;;5014593;28;20102;-76
2021/10/19 09:02:36;;;;;;;7.53;4.97;;;16.10;98.20;;;;;;5013213;28;20467;-77
2021/10/19 09:05:06;;;;;;;7.22;4.50;;;16.00;98.20;;;;;;5012738;28;20413;-78
2021/10/19 09:07:31;;;;;;;8.35;4.57;;;16.10;98.20;;;;;;5012177;28;20458;-78
2021/10/19 09:09:57;;;;;;;9.75;5.10;;;16.10;98.20;;;;;;5013921;28;20026;-78
2021/10/19 09:12:24;;;;;;;7.25;4.80;;;16.10;98.20;;;;;;5012551;28;20097;-78
2021/10/19 09:14:50;;;;;;;5.20;3.55;;;16.20;98.30;;;;;;5011979;28;20537;-78
2021/10/19 09:17:15;;;;;;;7.65;4.28;;;16.20;98.30;;;;;;5013770;28;20109;-79
2021/10/19 09:19:44;;;;;;;7.65;4.20;;;16.20;98.30;;;;;;5011580;28;20025;-78
2021/10/19 09:22:11;;;;;;;6.85;4.10;;;16.20;98.30;;;;;;5013737;28;20013;-78
2021/10/19 09:24:40;;;;;;;9.13;5.15;;;16.20;98.30;;;;;;5012876;28;20026;-78
2021/10/19 09:27:05;;;;;;;7.80;4.72;;;16.20;98.30;;;;;;5012566;28;20073;-78
2021/10/19 09:29:40;;;;;;;6.63;4.07;;;16.30;98.40;;;;;;5012694;28;20084;-78
2021/10/19 09:32:07;;;;;;;5.72;3.45;;;16.30;98.40;;;;;;5013770;28;20121;-78
2021/10/19 09:34:34;;;;;;;6.53;3.40;;;16.30;98.60;;;;;;5012699;28;20050;-78
2021/10/19 09:37:01;;;;;;;6.93;4.47;;;16.30;98.30;;;;;;5013440;28;20033;-78
2021/10/19 09:39:37;;;;;;;5.63;3.60;;;16.30;98.30;;;;;;5011149;28;20552;-78
2021/10/19 09:42:08;;;;;;;5.18;2.83;;;16.30;98.30;;;;;;5012265;28;20026;-78
2021/10/19 09:44:35;;;;;;;6.40;4.07;;;16.30;98.40;;;;;;5012517;28;20413;-78
2021/10/19 09:47:01;;;;;;;6.00;3.45;;;16.30;98.50;;;;;;5011959;28;20095;-78
2021/10/19 09:49:28;;;;;;;4.55;3.03;;;16.30;98.50;;;;;;5012049;28;20030;-78
2021/10/19 09:52:00;;;;;;;5.20;3.17;;;16.40;98.50;;;;;;5013282;28;20022;-78
2021/10/19 09:54:29;;;;;;;4.50;3.22;;;16.40;98.50;;;;;;5013145;28;20022;-76
2021/10/19 09:56:57;;;;;;;4.38;2.75;;;16.40;98.60;;;;;;5013032;28;20331;-77
2021/10/19 09:59:24;;;;;;;5.80;3.50;;;16.40;98.50;;;;;;5012945;28;20081;-77
2021/10/19 10:01:50;;;;;;;5.82;3.30;;;16.40;98.50;;;;;;5011120;28;20041;-76
2021/10/19 10:04:17;;;;;;;5.63;2.80;;;16.50;98.50;;;;;;5013196;28;20054;-77
2021/10/19 10:06:44;;;;;;;4.93;3.00;;;16.50;98.50;;;;;;5012494;28;20463;-77
2021/10/19 10:09:10;;;;;;;5.30;3.20;;;16.60;98.50;;;;;;5015515;28;20033;-76
2021/10/19 10:11:40;;;;;;;3.72;2.38;;;16.50;98.50;;;;;;5013180;28;20026;-77
2021/10/19 10:14:07;;;;;;;4.90;2.93;;;16.50;98.50;;;;;;5012594;28;20125;-77
2021/10/19 10:16:44;;;;;;;4.90;2.90;;;16.50;98.50;;;;;;5012184;28;20036;-77
2021/10/19 10:19:17;;;;;;;4.05;2.75;;;16.60;98.60;;;;;;5012794;28;20030;-78
2021/10/19 10:21:47;;;;;;;4.75;2.63;;;16.50;98.60;;;;;;5012390;28;20021;-78
2021/10/19 10:24:14;;;;;;;5.05;2.67;;;16.60;98.70;;;;;;5011369;28;20140;-76
2021/10/19 10:26:39;;;;;;;6.38;3.65;;;16.60;98.60;;;;;;5010718;28;20030;-79
2021/10/19 10:29:07;;;;;;;4.05;2.45;;;16.60;98.70;;;;;;5012652;28;20485;-76
2021/10/19 10:31:45;;;;;;;3.60;2.03;;;16.60;98.70;;;;;;5011763;28;20060;-76
2021/10/19 10:34:12;;;;;;;2.22;1.63;;;16.70;98.80;;;;;;5011251;28;20025;-76
2021/10/19 10:36:42;;;;;;;3.80;2.30;;;16.70;98.70;;;;;;5011870;28;20045;-77
2021/10/19 10:39:08;;;;;;;6.05;3.35;;;16.70;98.80;;;;;;5011219;28;20033;-78
2021/10/19 10:41:45;;;;;;;5.18;2.75;;;16.70;98.80;;;;;;5010562;28;20018;-78
2021/10/19 10:44:13;;;;;;;5.80;3.00;;;16.80;98.80;;;;;;5012255;28;20080;-78
2021/10/19 10:46:41;;;;;;;6.05;2.80;;;16.80;98.80;;;;;;5010498;28;20021;-78
2021/10/19 10:49:12;;;;;;;5.30;2.90;;;16.80;98.70;;;;;;5012134;28;20152;-78
2021/10/19 10:51:39;;;;;;;6.72;3.30;;;16.80;98.70;;;;;;5010243;28;20037;-77
2021/10/19 10:54:06;;;;;;;6.43;3.05;;;16.90;98.80;;;;;;5012291;28;20034;-78
2021/10/19 10:56:47;;;;;;;6.47;3.50;;;17.00;98.80;;;;;;5010970;28;20037;-77
2021/10/19 10:59:26;;;;;;;5.97;3.20;;;17.00;98.80;;;;;;5011971;28;20068;-77
2021/10/19 11:01:55;;;;;;;10.13;4.10;;;17.00;98.80;;;;;;5010397;28;20040;-78
2021/10/19 11:04:20;;;;;;;6.63;3.92;;;17.00;98.70;;;;;;5012159;28;20030;-77
2021/10/19 11:06:46;;;;;;;7.88;4.55;;;17.10;98.80;;;;;;5011528;28;20037;-77
2021/10/19 11:09:15;;;;;;;8.90;4.00;;;17.00;98.80;;;;;;5012200;28;20487;-78
2021/10/19 11:11:43;;;;;;;7.07;3.83;;;17.10;98.80;;;;;;5010147;28;20053;-77
2021/10/19 11:14:11;;;;;;;7.38;4.10;;;17.10;98.90;;;;;;5010950;28;20343;-77
2021/10/19 11:16:43;;;;;;;7.88;3.50;;;17.10;98.90;;;;;;5011332;28;20037;-77
2021/10/19 11:19:21;;;;;;;6.47;3.80;;;17.10;98.90;;;;;;5012123;28;20040;-77
2021/10/19 11:21:53;;;;;;;7.93;4.43;;;17.10;98.90;;;;;;5010176;28;20026;-78
2021/10/19 11:24:20;;;;;;;8.52;4.10;;;17.20;98.90;;;;;;5010682;28;20022;-77
2021/10/19 11:26:46;;;;;;;7.93;4.38;;;17.20;98.80;;;;;;5011478;28;20117;-77
2021/10/19 11:29:12;;;;;;;8.82;4.50;;;17.20;98.80;;;;;;5010635;28;20018;-77
2021/10/19 11:31:38;;;;;;;8.55;4.20;;;17.30;98.80;;;;;;5010036;28;20375;-76
2021/10/19 11:34:05;;;;;;;6.85;3.83;;;17.40;98.80;;;;;;5010491;28;20026;-78
2021/10/19 11:36:31;;;;;;;9.05;4.80;;;17.40;98.80;;;;;;5010710;28;20029;-78
2021/10/19 11:38:59;;;;;;;8.27;4.50;;;17.50;98.80;;;;;;5011256;28;20149;-78
2021/10/19 11:41:28;;;;;;;8.02;4.68;;;17.40;98.70;;;;;;5010594;28;20422;-78
2021/10/19 11:43:59;;;;;;;8.15;4.68;;;17.40;98.80;;;;;;5011287;28;20025;-78
2021/10/19 11:46:27;;;;;;;9.50;5.32;;;17.50;98.80;;;;;;5010305;28;20030;-78
2021/10/19 11:48:55;;;;;;;9.50;5.35;;;17.40;98.90;;;;;;5009995;28;20049;-78
2021/10/19 11:51:23;;;;;;;11.77;5.72;;;17.40;98.90;;;;;;5011875;28;20022;-78
2021/10/19 11:53:53;;;;;;;8.73;4.60;;;17.50;99.00;;;;;;5009772;28;20045;-77
2021/10/19 11:56:20;;;;;;;11.63;6.20;;;17.40;98.90;;;;;;5013555;28;20442;-77
2021/10/19 11:59:03;;;;;;;10.43;5.40;;;17.50;99.00;;;;;;5014667;28;20045;-77
2021/10/19 12:01:41;;;;;;;9.30;6.10;;;17.50;99.00;;;;;;5015210;28;20025;-77
2021/10/19 12:04:16;;;;;;;9.65;5.68;;;17.60;99.00;;;;;;5013914;28;20033;-78
2021/10/19 12:06:46;;;;;;;11.73;6.25;;;17.60;99.00;;;;;;5013275;28;20327;-78
2021/10/19 12:09:17;;;;;;;9.07;5.20;;;17.60;98.90;;;;;;5013924;28;20057;-78
2021/10/19 12:11:52;;;;;;;9.98;5.97;;;17.60;98.90;;;;;;5013199;28;20524;-77
2021/10/19 12:14:31;;;;;;;9.68;5.45;;;17.60;98.90;;;;;;5013688;28;20030;-78
2021/10/19 12:17:00;;;;;;;10.32;5.75;;;17.60;99.00;;;;;;5014216;28;20083;-77
2021/10/19 12:19:27;;;;;;;13.00;6.72;;;17.60;99.10;;;;;;5013548;28;20022;-77
2021/10/19 12:21:55;;;;;;;10.02;5.65;;;17.60;99.10;;;;;;5013070;28;20124;-77
2021/10/19 12:24:22;;;;;;;10.00;5.47;;;17.50;99.20;;;;;;5014715;28;20076;-77
2021/10/19 12:26:57;;;;;;;9.68;4.72;;;17.50;99.20;;;;;;5014447;28;20037;-77
2021/10/19 12:29:22;;;;;;;9.68;5.28;;;17.50;99.30;;;;;;5015011;28;20025;-77
2021/10/19 12:31:48;;;;;;;8.73;4.45;;;17.50;99.40;;;;;;5016566;28;20026;-77
2021/10/19 12:34:14;;;;;;;13.02;5.97;;;17.50;99.40;;;;;;5014312;28;20026;-77
2021/10/19 12:36:40;;;;;;;7.85;4.70;;;17.40;99.50;;;;;;5014486;28;20026;-78
2021/10/19 12:39:16;;;;;;;8.57;4.70;;;17.40;99.50;;;;;;5013191;28;20457;-78
2021/10/19 12:41:43;;;;;;;9.23;5.03;;;17.40;99.50;;;;;;5014197;28;20018;-77
2021/10/19 12:44:14;;;;;;;9.40;4.65;;;17.40;99.60;;;;;;5014576;28;20029;-78